Terminal Aerodrome Forecast
Issued by NWS

Home | Current Version | Previous Version | Text Only | Print | Product List | Glossary On
Versions: 1 2 3 4 5 6 7 8 9 10 11 12 13 14 15 16 17 18 19 20 21 22 23 24
217
FTUS43 KIND 202328
TAFHUF
TAF
KHUF 202328Z 2100/2124 14006KT P6SM VCSH SCT020 OVC030
     FM210300 16007KT 6SM BR BKN015 OVC030
     FM210600 19009KT 6SM BR OVC010
     FM210900 18008KT 5SM BR BKN005
     FM211500 18009KT 5SM BR BKN020
     FM211600 19010KT P6SM BKN020
     FM211900 19010G18KT P6SM BKN035=

USA.gov is the U.S. government's official web portal to all federal, state and local government web resources and services.